Time;durP1;ratioP1;P1;durP2;ratioP2;P2;SDS_P1;SDS_P2;PMS_P1;PMS_P2;Temp;Humidity;BMP_temperature;BMP_pressure;BME280_temperature;BME280_humidity;BME280_pressure;Samples;Min_cycle;Max_cycle;Signal;HPM_P1;HPM_P2
2023/10/29 00:01:53;;;;;;;5.10;1.23;;;;;;;12.18;100.00;98962.72;5262862;28;20076;-75
2023/10/29 00:04:24;;;;;;;3.30;1.23;;;;;;;12.20;100.00;98972.19;5278312;28;20137;-76
2023/10/29 00:06:56;;;;;;;7.20;1.93;;;;;;;12.22;100.00;98959.06;5262555;28;20032;-74
2023/10/29 00:09:27;;;;;;;1.67;1.23;;;;;;;12.24;100.00;98959.81;5262839;28;20040;-76
2023/10/29 00:11:58;;;;;;;2.37;1.00;;;;;;;12.24;100.00;98959.81;5261624;28;20037;-76
2023/10/29 00:14:30;;;;;;;4.00;1.40;;;;;;;12.22;100.00;98953.84;5262826;28;20115;-76
2023/10/29 00:17:01;;;;;;;2.43;1.30;;;;;;;12.20;100.00;98930.41;5262469;28;20060;-75
2023/10/29 00:19:33;;;;;;;5.53;1.60;;;;;;;12.19;100.00;98927.88;5262534;28;20484;-75
2023/10/29 00:22:05;;;;;;;1.97;1.37;;;;;;;12.24;100.00;98922.41;5262616;28;20036;-75
2023/10/29 00:24:36;;;;;;;2.43;1.20;;;;;;;12.25;100.00;98893.56;5262992;28;20033;-75
2023/10/29 00:27:07;;;;;;;3.80;1.40;;;;;;;12.19;100.00;98878.22;5262981;28;20087;-75
2023/10/29 00:29:41;;;;;;;4.07;1.50;;;;;;;12.20;100.00;98879.91;5262342;28;20025;-75
2023/10/29 00:32:13;;;;;;;3.13;1.20;;;;;;;12.19;100.00;98870.41;5262326;28;20112;-73
2023/10/29 00:34:48;;;;;;;3.40;1.38;;;;;;;12.21;100.00;98886.84;5262449;28;20475;-74
2023/10/29 00:37:19;;;;;;;5.70;2.08;;;;;;;12.23;100.00;98871.91;5261806;28;20025;-76
2023/10/29 00:39:51;;;;;;;2.53;1.20;;;;;;;12.26;100.00;98866.53;5277780;28;20065;-74
2023/10/29 00:42:23;;;;;;;2.93;1.50;;;;;;;12.30;100.00;98914.25;5261447;28;20101;-74
2023/10/29 00:44:54;;;;;;;3.42;1.70;;;;;;;12.35;100.00;98910.50;5277506;28;20040;-76
2023/10/29 00:47:26;;;;;;;4.17;1.60;;;;;;;12.45;100.00;98894.38;5262060;28;20029;-74
2023/10/29 00:49:57;;;;;;;6.40;1.20;;;;;;;12.51;100.00;98891.41;5262089;28;20056;-74
2023/10/29 00:52:29;;;;;;;5.13;1.30;;;;;;;12.54;100.00;98896.47;5262081;28;20057;-76
2023/10/29 00:55:02;;;;;;;3.17;1.33;;;;;;;12.58;100.00;98901.47;5262007;28;20069;-73
2023/10/29 00:57:33;;;;;;;2.78;1.15;;;;;;;12.61;100.00;98879.59;5277365;28;20083;-76
2023/10/29 01:00:06;;;;;;;4.73;1.40;;;;;;;12.54;100.00;98881.66;5262396;28;20467;-75
2023/10/29 01:02:37;;;;;;;3.10;1.17;;;;;;;12.45;100.00;98887.34;5261943;28;20387;-75
2023/10/29 01:05:09;;;;;;;2.07;1.00;;;;;;;12.45;100.00;98870.84;5261730;28;20033;-75
2023/10/29 01:07:41;;;;;;;4.20;1.40;;;;;;;12.56;100.00;98866.75;5262429;28;20045;-76
2023/10/29 01:10:13;;;;;;;5.93;1.30;;;;;;;12.68;100.00;98869.66;5261964;28;20037;-76
2023/10/29 01:12:45;;;;;;;5.30;1.97;;;;;;;12.72;100.00;98869.41;5277019;28;20124;-77
2023/10/29 01:15:16;;;;;;;4.55;1.23;;;;;;;12.57;100.00;98859.75;5263226;28;20267;-74
2023/10/29 01:17:48;;;;;;;3.40;1.60;;;;;;;12.44;100.00;98848.25;5266203;28;20055;-75
2023/10/29 01:20:19;;;;;;;2.93;1.40;;;;;;;12.36;100.00;98844.28;5265825;28;20029;-75
2023/10/29 01:22:51;;;;;;;3.43;1.50;;;;;;;12.43;100.00;98831.72;5265591;28;20029;-76
2023/10/29 01:25:23;;;;;;;1.52;1.25;;;;;;;12.52;100.00;98841.69;5265797;28;20029;-74
2023/10/29 01:27:54;;;;;;;3.00;1.10;;;;;;;12.52;100.00;98857.34;5265697;28;20029;-76
2023/10/29 01:30:26;;;;;;;2.93;1.67;;;;;;;12.59;100.00;98856.13;5265430;28;20029;-75
2023/10/29 01:32:59;;;;;;;1.97;1.27;;;;;;;12.63;100.00;98842.91;5265941;28;20081;-76
2023/10/29 01:35:30;;;;;;;2.50;1.10;;;;;;;12.63;100.00;98848.97;5265320;28;20090;-76
2023/10/29 01:38:01;;;;;;;5.57;1.50;;;;;;;12.68;100.00;98822.59;5265207;28;20033;-77
2023/10/29 01:40:33;;;;;;;2.17;1.10;;;;;;;12.64;100.00;98839.34;5265254;28;20033;-75
2023/10/29 01:43:04;;;;;;;4.33;1.23;;;;;;;12.65;100.00;98822.75;5265121;28;20029;-77
2023/10/29 01:45:38;;;;;;;3.60;1.40;;;;;;;12.55;100.00;98822.41;5264889;28;20036;-77
2023/10/29 01:48:10;;;;;;;2.45;1.27;;;;;;;12.42;100.00;98821.34;5264982;28;20470;-77
2023/10/29 01:50:41;;;;;;;3.93;1.77;;;;;;;12.35;100.00;98815.59;5264879;28;20116;-77
2023/10/29 01:53:12;;;;;;;1.20;1.10;;;;;;;12.32;100.00;98818.38;5265119;28;20017;-78
2023/10/29 01:55:44;;;;;;;2.43;1.47;;;;;;;12.37;100.00;98817.19;5264946;28;20082;-76
2023/10/29 01:58:15;;;;;;;3.90;1.67;;;;;;;12.32;100.00;98826.22;5264534;28;20033;-77
2023/10/29 02:00:46;;;;;;;4.63;1.47;;;;;;;12.29;100.00;98832.44;5264737;28;20040;-75
2023/10/29 02:03:18;;;;;;;3.67;1.17;;;;;;;12.33;100.00;98828.75;5264956;28;20460;-77
2023/10/29 02:05:49;;;;;;;3.57;1.20;;;;;;;12.36;100.00;98840.78;5264658;28;20491;-77
2023/10/29 02:08:20;;;;;;;3.73;1.37;;;;;;;12.42;100.00;98837.88;5267674;28;20533;-75
2023/10/29 02:10:52;;;;;;;5.10;1.27;;;;;;;12.51;100.00;98839.16;5268741;28;20052;-77
2023/10/29 02:13:23;;;;;;;2.47;1.30;;;;;;;12.51;100.00;98842.63;5266916;28;20029;-76
2023/10/29 02:15:54;;;;;;;3.40;1.20;;;;;;;12.55;100.00;98833.69;5266289;28;20041;-76
2023/10/29 02:18:26;;;;;;;2.97;1.33;;;;;;;12.56;100.00;98826.72;5264206;28;20084;-76
2023/10/29 02:20:57;;;;;;;2.73;1.40;;;;;;;12.54;100.00;98855.53;5264508;28;20041;-76
2023/10/29 02:23:29;;;;;;;3.47;1.27;;;;;;;12.62;100.00;98812.47;5279864;28;20025;-76
2023/10/29 02:26:00;;;;;;;3.53;1.33;;;;;;;12.57;100.00;98839.69;5263635;28;20040;-76
2023/10/29 02:28:32;;;;;;;3.10;1.50;;;;;;;12.53;100.00;98839.94;5263690;28;20036;-77
2023/10/29 02:31:03;;;;;;;4.93;1.70;;;;;;;12.49;100.00;98834.00;5264773;28;20047;-75
2023/10/29 02:33:34;;;;;;;7.10;1.97;;;;;;;12.47;100.00;98835.84;5263976;28;20503;-76
2023/10/29 02:36:06;;;;;;;6.33;1.70;;;;;;;12.52;100.00;98828.63;5265451;28;20037;-76
2023/10/29 02:38:38;;;;;;;3.30;1.40;;;;;;;12.57;100.00;98834.47;5267432;28;20130;-76
2023/10/29 02:41:09;;;;;;;2.10;1.07;;;;;;;12.63;100.00;98843.75;5267759;28;20026;-74
2023/10/29 02:43:41;;;;;;;2.93;1.20;;;;;;;12.66;100.00;98825.28;5265718;28;20048;-74
2023/10/29 02:46:12;;;;;;;3.40;1.70;;;;;;;12.73;100.00;98817.97;5267150;28;20036;-75
2023/10/29 02:48:43;;;;;;;1.47;1.07;;;;;;;12.82;100.00;98822.72;5267486;28;20515;-74
2023/10/29 02:51:15;;;;;;;1.57;0.93;;;;;;;12.84;100.00;98823.47;5281852;28;20032;-76
2023/10/29 02:53:46;;;;;;;4.33;1.60;;;;;;;12.90;100.00;98844.06;5267258;28;20036;-76
2023/10/29 02:56:17;;;;;;;3.07;1.17;;;;;;;12.96;100.00;98832.44;5265903;28;20107;-74
2023/10/29 02:58:49;;;;;;;1.57;1.00;;;;;;;13.00;100.00;98838.34;5264969;28;20033;-75
2023/10/29 03:01:21;;;;;;;2.90;1.20;;;;;;;12.99;100.00;98834.84;5262634;28;20033;-77
2023/10/29 03:03:53;;;;;;;5.55;1.25;;;;;;;13.07;100.00;98826.59;5263588;28;20202;-75
2023/10/29 03:06:24;;;;;;;1.17;0.87;;;;;;;13.12;100.00;98822.81;5263214;28;20108;-75
2023/10/29 03:08:55;;;;;;;2.17;1.07;;;;;;;13.17;100.00;98825.19;5263321;28;20037;-74
2023/10/29 03:11:27;;;;;;;2.33;1.20;;;;;;;13.22;100.00;98819.72;5262189;28;20067;-74
2023/10/29 03:13:59;;;;;;;4.10;1.03;;;;;;;13.22;100.00;98824.94;5264135;28;20346;-73
2023/10/29 03:16:30;;;;;;;2.97;1.00;;;;;;;13.17;100.00;98822.56;5262308;28;20057;-76
2023/10/29 03:19:02;;;;;;;3.67;1.47;;;;;;;13.25;100.00;98835.22;5263571;28;20456;-76
2023/10/29 03:21:33;;;;;;;1.77;1.07;;;;;;;13.24;100.00;98828.31;5263206;28;20178;-77
2023/10/29 03:24:05;;;;;;;1.07;0.97;;;;;;;13.28;100.00;98827.19;5263164;28;20139;-77
2023/10/29 03:26:36;;;;;;;1.97;1.20;;;;;;;13.31;100.00;98837.50;5263240;28;20391;-78
2023/10/29 03:29:07;;;;;;;4.47;1.50;;;;;;;13.09;100.00;98835.22;5263424;28;20412;-76
2023/10/29 03:31:39;;;;;;;2.63;1.37;;;;;;;12.72;100.00;98848.50;5263024;28;20025;-78
2023/10/29 03:34:12;;;;;;;3.00;1.00;;;;;;;12.45;100.00;98839.50;5263014;28;20028;-76
2023/10/29 03:36:43;;;;;;;2.72;1.15;;;;;;;12.27;100.00;98842.13;5263254;28;20112;-74
2023/10/29 03:39:16;;;;;;;2.87;1.37;;;;;;;12.21;100.00;98834.59;5262761;28;20116;-75
2023/10/29 03:41:47;;;;;;;0.80;0.80;;;;;;;12.26;100.00;98839.59;5263143;28;20459;-75
2023/10/29 03:44:19;;;;;;;3.43;1.57;;;;;;;12.29;100.00;98844.66;5261448;28;20095;-76
2023/10/29 03:46:51;;;;;;;2.73;1.20;;;;;;;12.25;100.00;98841.31;5262470;28;20376;-75
2023/10/29 03:49:23;;;;;;;4.95;1.75;;;;;;;12.19;100.00;98834.66;5262570;28;20099;-74
2023/10/29 03:51:54;;;;;;;2.30;1.20;;;;;;;12.19;100.00;98831.22;5262948;28;20029;-76
2023/10/29 03:54:25;;;;;;;2.07;1.20;;;;;;;12.30;100.00;98821.06;5262308;28;20052;-76
2023/10/29 03:56:57;;;;;;;8.53;1.77;;;;;;;12.33;100.00;98820.91;5262306;28;20480;-74
2023/10/29 03:59:28;;;;;;;2.00;1.00;;;;;;;12.38;100.00;98833.72;5262369;28;20029;-76
2023/10/29 04:02:00;;;;;;;2.90;1.20;;;;;;;12.46;100.00;98834.19;5262868;28;20103;-76
2023/10/29 04:04:35;;;;;;;3.73;1.00;;;;;;;12.50;100.00;98832.25;5262465;28;20060;-75
2023/10/29 04:07:06;;;;;;;1.45;0.93;;;;;;;12.50;100.00;98827.84;5263132;28;20028;-75
2023/10/29 04:09:38;;;;;;;5.10;1.17;;;;;;;12.58;100.00;98843.16;5261137;28;20037;-76
2023/10/29 04:12:09;;;;;;;1.83;0.90;;;;;;;12.70;100.00;98828.56;5262514;28;20483;-76
2023/10/29 04:14:42;;;;;;;4.63;1.37;;;;;;;12.75;100.00;98835.25;5260954;28;20096;-76
2023/10/29 04:17:13;;;;;;;3.42;1.10;;;;;;;12.80;100.00;98848.09;5261323;28;20529;-75
2023/10/29 04:19:45;;;;;;;2.90;1.10;;;;;;;12.77;100.00;98854.31;5262315;28;20033;-75
2023/10/29 04:22:17;;;;;;;3.17;1.30;;;;;;;12.77;100.00;98872.63;5261004;28;20025;-75
2023/10/29 04:24:48;;;;;;;2.97;1.13;;;;;;;12.75;100.00;98853.56;5261984;28;20025;-76
2023/10/29 04:27:20;;;;;;;2.77;1.20;;;;;;;12.88;100.00;98869.44;5262409;28;20154;-75
2023/10/29 04:29:51;;;;;;;2.90;1.70;;;;;;;12.82;100.00;98855.88;5262253;28;20067;-76
2023/10/29 04:32:22;;;;;;;5.40;1.50;;;;;;;12.89;100.00;98854.59;5261106;28;20195;-74
2023/10/29 04:34:54;;;;;;;1.80;1.10;;;;;;;12.75;100.00;98852.69;5277852;28;20064;-76
2023/10/29 04:37:25;;;;;;;3.43;1.60;;;;;;;12.69;100.00;98848.66;5262128;28;20033;-75
2023/10/29 04:39:57;;;;;;;3.37;1.20;;;;;;;12.74;100.00;98854.47;5262127;28;20055;-76
2023/10/29 04:42:28;;;;;;;4.60;1.47;;;;;;;12.77;100.00;98853.50;5262141;28;20468;-77
2023/10/29 04:44:59;;;;;;;2.87;1.30;;;;;;;12.82;100.00;98861.09;5262121;28;20083;-74
2023/10/29 04:47:31;;;;;;;2.63;1.10;;;;;;;12.80;100.00;98853.31;5262165;28;20029;-75
2023/10/29 04:50:03;;;;;;;3.40;1.43;;;;;;;12.82;100.00;98863.72;5262985;28;20055;-76
2023/10/29 04:52:34;;;;;;;2.85;1.20;;;;;;;12.83;100.00;98854.91;5281485;28;20037;-76
2023/10/29 04:55:06;;;;;;;5.17;1.90;;;;;;;12.84;100.00;98877.53;5265020;28;20029;-74
2023/10/29 04:57:37;;;;;;;6.93;1.83;;;;;;;12.90;100.00;98857.13;5266223;28;20098;-76
2023/10/29 05:00:09;;;;;;;4.77;1.80;;;;;;;12.79;100.00;98861.25;5266270;28;20044;-76
2023/10/29 05:02:41;;;;;;;2.83;1.33;;;;;;;12.69;100.00;98856.50;5264720;28;20032;-76
2023/10/29 05:05:12;;;;;;;2.97;1.20;;;;;;;12.71;100.00;98859.03;5265826;28;20029;-76
2023/10/29 05:07:45;;;;;;;6.00;1.73;;;;;;;12.66;100.00;98867.13;5265746;28;20380;-75
2023/10/29 05:10:16;;;;;;;9.45;1.80;;;;;;;12.66;100.00;98879.34;5265760;28;20064;-78
2023/10/29 05:12:47;;;;;;;4.27;2.00;;;;;;;12.66;100.00;98882.78;5264673;28;20069;-76
2023/10/29 05:15:19;;;;;;;8.37;1.73;;;;;;;12.61;100.00;98887.41;5265537;28;20025;-76
2023/10/29 05:17:50;;;;;;;4.83;1.67;;;;;;;12.62;100.00;98909.16;5264858;28;20484;-75
2023/10/29 05:20:22;;;;;;;7.07;1.77;;;;;;;12.46;100.00;98919.56;5265337;28;20029;-75
2023/10/29 05:22:53;;;;;;;6.67;1.80;;;;;;;12.06;100.00;98898.03;5265302;28;20060;-76
2023/10/29 05:25:25;;;;;;;5.20;1.40;;;;;;;11.88;100.00;98928.47;5265452;28;20040;-78
2023/10/29 05:27:56;;;;;;;4.40;1.47;;;;;;;11.62;100.00;98927.94;5265263;28;20037;-76
2023/10/29 05:30:28;;;;;;;3.60;1.63;;;;;;;11.40;100.00;98901.97;5265227;28;20064;-77
2023/10/29 05:32:59;;;;;;;6.53;1.67;;;;;;;11.24;100.00;98907.91;5265503;28;20487;-76
2023/10/29 05:35:30;;;;;;;4.20;1.60;;;;;;;11.10;100.00;98900.72;5265347;28;20033;-76
2023/10/29 05:38:02;;;;;;;2.83;1.40;;;;;;;11.02;100.00;98899.38;5263849;28;20087;-76
2023/10/29 05:40:33;;;;;;;3.40;1.37;;;;;;;10.89;100.00;98889.47;5264991;28;20036;-76
2023/10/29 05:43:05;;;;;;;4.60;1.40;;;;;;;10.82;100.00;98908.94;5265266;28;20420;-76
2023/10/29 05:45:36;;;;;;;3.30;1.27;;;;;;;10.79;100.00;98916.00;5264926;28;20029;-76
2023/10/29 05:48:07;;;;;;;3.13;1.57;;;;;;;10.84;100.00;98925.34;5264884;28;20033;-74
2023/10/29 05:50:39;;;;;;;4.77;1.63;;;;;;;10.74;100.00;98934.47;5264624;28;20116;-78
2023/10/29 05:53:10;;;;;;;5.70;1.63;;;;;;;10.73;100.00;98925.78;5265328;28;20059;-75
2023/10/29 05:55:41;;;;;;;4.97;1.40;;;;;;;10.65;100.00;98940.91;5265447;28;20094;-75
2023/10/29 05:58:13;;;;;;;4.30;1.47;;;;;;;10.64;100.00;98949.66;5265234;28;20043;-75
2023/10/29 06:00:44;;;;;;;6.67;1.70;;;;;;;10.65;100.00;98953.09;5264562;28;20063;-74
2023/10/29 06:03:16;;;;;;;7.20;1.87;;;;;;;10.61;100.00;98960.22;5264621;28;20473;-75
2023/10/29 06:05:47;;;;;;;7.57;1.83;;;;;;;10.67;100.00;98974.72;5280774;28;20041;-77
2023/10/29 06:08:19;;;;;;;4.27;1.43;;;;;;;10.67;100.00;98978.16;5263047;28;20095;-76
2023/10/29 06:10:50;;;;;;;9.90;3.40;;;;;;;10.69;100.00;98973.75;5264805;28;20448;-74
2023/10/29 06:13:21;;;;;;;8.00;1.77;;;;;;;10.68;100.00;98979.88;5263165;28;20071;-74
2023/10/29 06:15:53;;;;;;;8.67;1.90;;;;;;;10.71;100.00;98999.75;5264052;28;20087;-77
2023/10/29 06:18:25;;;;;;;11.17;2.60;;;;;;;10.71;100.00;99000.59;5264316;28;20025;-79
2023/10/29 06:20:56;;;;;;;8.93;2.45;;;;;;;10.69;100.00;98993.75;5264168;28;20116;-75
2023/10/29 06:23:28;;;;;;;7.00;2.13;;;;;;;10.64;100.00;99006.13;5264207;28;20124;-76
2023/10/29 06:25:59;;;;;;;7.87;2.27;;;;;;;10.61;100.00;99007.13;5263193;28;20029;-78
2023/10/29 06:28:30;;;;;;;7.83;2.33;;;;;;;10.67;100.00;99001.63;5264174;28;20045;-75
2023/10/29 06:31:02;;;;;;;9.27;2.10;;;;;;;10.63;100.00;99017.47;5263609;28;20116;-75
2023/10/29 06:33:36;;;;;;;9.70;2.97;;;;;;;10.53;100.00;99017.00;5265263;28;20037;-75
2023/10/29 06:36:08;;;;;;;12.52;2.60;;;;;;;10.56;100.00;99009.91;5265993;28;20056;-78
2023/10/29 06:38:40;;;;;;;12.33;2.20;;;;;;;10.49;100.00;99008.44;5265092;28;20540;-75
2023/10/29 06:41:11;;;;;;;10.43;3.00;;;;;;;10.43;100.00;99016.50;5264241;28;20267;-75
2023/10/29 06:43:43;;;;;;;11.03;2.73;;;;;;;10.45;100.00;99024.25;5264589;28;20033;-76
2023/10/29 06:46:17;;;;;;;6.57;2.17;;;;;;;10.41;100.00;99028.75;5264490;28;20021;-78
2023/10/29 06:48:49;;;;;;;10.55;2.65;;;;;;;10.47;100.00;99036.31;5263159;28;20053;-76
2023/10/29 06:51:20;;;;;;;12.50;2.60;;;;;;;10.41;100.00;99039.16;5264001;28;20105;-76
2023/10/29 06:53:52;;;;;;;7.03;2.53;;;;;;;10.39;100.00;99046.22;5265778;28;20033;-76
2023/10/29 06:56:23;;;;;;;9.53;2.30;;;;;;;10.40;100.00;99040.94;5281978;28;20376;-77
2023/10/29 06:58:55;;;;;;;10.73;3.10;;;;;;;10.43;100.00;99045.16;5266584;28;20053;-76
2023/10/29 07:01:26;;;;;;;6.87;2.20;;;;;;;10.39;100.00;99054.03;5266365;28;20044;-76
2023/10/29 07:03:58;;;;;;;11.67;3.20;;;;;;;10.40;100.00;99066.16;5264135;28;20070;-76
2023/10/29 07:06:30;;;;;;;9.37;2.53;;;;;;;10.43;100.00;99062.56;5263791;28;20047;-74
2023/10/29 07:09:03;;;;;;;10.40;2.28;;;;;;;10.42;100.00;99073.88;5263743;28;20041;-76
2023/10/29 07:11:36;;;;;;;10.07;3.65;;;;;;;10.48;100.00;99087.53;5264207;28;20041;-75
2023/10/29 07:14:07;;;;;;;;;;;;;;;10.46;100.00;99085.88;5263595;28;20033;-76
2023/10/29 07:16:45;;;;;;;8.05;2.65;;;;;;;10.61;100.00;99089.63;5261745;28;19978;-76
2023/10/29 07:19:19;;;;;;;9.73;2.60;;;;;;;10.69;100.00;99085.81;5263119;28;20118;-76
2023/10/29 07:21:50;;;;;;;7.15;2.00;;;;;;;10.76;100.00;99089.03;5263065;28;20032;-76
2023/10/29 07:24:21;;;;;;;9.63;3.47;;;;;;;10.86;100.00;99090.31;5263150;28;20372;-74
2023/10/29 07:26:53;;;;;;;10.13;2.40;;;;;;;10.90;100.00;99084.09;5263582;28;20041;-75
2023/10/29 07:29:24;;;;;;;6.90;2.93;;;;;;;10.99;100.00;99100.25;5278330;28;20116;-75
2023/10/29 07:31:56;;;;;;;8.43;2.50;;;;;;;11.05;100.00;99113.03;5263074;28;20036;-75
2023/10/29 07:34:27;;;;;;;8.60;2.70;;;;;;;11.06;100.00;99127.75;5263526;28;20129;-76
2023/10/29 07:36:59;;;;;;;10.07;2.63;;;;;;;11.07;100.00;99130.31;5262742;28;20029;-75
2023/10/29 07:39:31;;;;;;;9.75;3.25;;;;;;;11.13;100.00;99129.22;5263006;28;20457;-77
2023/10/29 07:42:02;;;;;;;9.70;3.07;;;;;;;11.18;100.00;99134.25;5262723;28;20033;-75
2023/10/29 07:44:33;;;;;;;11.77;2.40;;;;;;;11.21;100.00;99136.72;5262779;28;20033;-75
2023/10/29 07:47:08;;;;;;;12.57;3.40;;;;;;;11.26;100.00;99134.78;5261492;28;20032;-75
2023/10/29 07:49:39;;;;;;;9.32;2.47;;;;;;;11.38;100.00;99146.44;5262655;28;20036;-74
2023/10/29 07:52:11;;;;;;;10.03;2.90;;;;;;;11.37;100.00;99134.31;5262804;28;20025;-76
2023/10/29 07:54:42;;;;;;;10.47;3.40;;;;;;;11.43;100.00;99141.88;5262632;28;20376;-75
2023/10/29 07:57:14;;;;;;;9.52;2.58;;;;;;;11.50;100.00;99158.97;5262485;28;20064;-74
2023/10/29 07:59:45;;;;;;;10.80;2.83;;;;;;;11.56;100.00;99152.63;5261109;28;20040;-75
2023/10/29 08:02:16;;;;;;;8.83;2.63;;;;;;;11.76;100.00;99143.94;5261211;28;20119;-75
2023/10/29 08:04:48;;;;;;;9.03;2.23;;;;;;;11.82;100.00;99147.13;5262424;28;20358;-75
2023/10/29 08:07:20;;;;;;;7.17;2.60;;;;;;;11.88;100.00;99146.00;5262358;28;20499;-76
2023/10/29 08:09:51;;;;;;;8.50;2.50;;;;;;;11.90;100.00;99157.25;5262534;28;20057;-77
2023/10/29 08:12:23;;;;;;;10.43;2.40;;;;;;;11.96;100.00;99163.97;5262326;28;20029;-78
2023/10/29 08:14:54;;;;;;;12.13;2.53;;;;;;;12.06;100.00;99161.78;5262626;28;20502;-79
2023/10/29 08:17:26;;;;;;;7.23;2.57;;;;;;;12.19;100.00;99173.41;5263395;28;20057;-78
2023/10/29 08:20:00;;;;;;;10.73;2.43;;;;;;;12.32;100.00;99168.47;5262629;28;20033;-78
2023/10/29 08:22:32;;;;;;;10.55;2.53;;;;;;;12.33;100.00;99172.75;5263258;28;20033;-81
2023/10/29 08:25:03;;;;;;;8.63;2.40;;;;;;;12.43;100.00;99184.50;5263356;28;20931;-77
2023/10/29 08:27:35;;;;;;;10.53;2.77;;;;;;;12.60;100.00;99194.16;5265709;28;20364;-77
2023/10/29 08:30:08;;;;;;;8.47;2.53;;;;;;;12.72;97.56;99198.81;5266770;28;20032;-79
2023/10/29 08:32:39;;;;;;;10.25;2.90;;;;;;;12.76;100.00;99187.28;5266306;28;20025;-77
2023/10/29 08:35:11;;;;;;;9.93;2.77;;;;;;;12.75;97.04;99195.19;5266440;28;20040;-76
2023/10/29 08:37:42;;;;;;;9.30;2.70;;;;;;;12.84;95.16;99199.16;5266386;28;20036;-77
2023/10/29 08:40:13;;;;;;;10.00;3.37;;;;;;;12.92;95.39;99199.63;5265038;28;20104;-81
2023/10/29 08:42:45;;;;;;;10.97;2.67;;;;;;;13.01;93.12;99198.34;5266623;28;20036;-78
2023/10/29 08:45:16;;;;;;;10.23;3.37;;;;;;;13.03;92.70;99214.84;5266693;28;20166;-76
2023/10/29 08:47:48;;;;;;;10.30;2.17;;;;;;;13.14;92.28;99215.16;5266272;28;20472;-76
2023/10/29 08:50:19;;;;;;;7.57;2.30;;;;;;;13.29;90.65;99252.81;5266469;28;20025;-78
2023/10/29 08:52:50;;;;;;;9.53;2.80;;;;;;;13.40;90.73;99239.25;5266104;28;20057;-77
2023/10/29 08:55:23;;;;;;;7.20;3.17;;;;;;;13.51;88.08;99244.78;5265910;28;20025;-76
2023/10/29 08:57:54;;;;;;;7.78;3.20;;;;;;;13.74;85.57;99248.88;5265784;28;20033;-76
2023/10/29 09:00:25;;;;;;;6.43;2.73;;;;;;;13.99;86.38;99250.22;5266255;28;20033;-78
2023/10/29 09:02:57;;;;;;;8.53;2.63;;;;;;;14.21;83.75;99258.66;5265974;28;20090;-77
2023/10/29 09:05:28;;;;;;;6.93;1.90;;;;;;;14.38;82.35;99259.56;5265888;28;20033;-79
2023/10/29 09:07:59;;;;;;;6.60;2.40;;;;;;;14.49;81.72;99264.22;5266212;28;20036;-79
2023/10/29 09:10:31;;;;;;;8.70;2.40;;;;;;;14.70;81.73;99283.25;5266782;28;20025;-78
2023/10/29 09:13:02;;;;;;;10.60;3.30;;;;;;;14.70;80.16;99278.00;5265667;28;20036;-80
2023/10/29 09:15:34;;;;;;;9.43;2.27;;;;;;;14.50;79.50;99284.28;5265896;28;20119;-77
2023/10/29 09:18:05;;;;;;;8.47;2.20;;;;;;;14.25;81.69;99284.72;5265916;28;20036;-79
2023/10/29 09:20:38;;;;;;;6.17;2.40;;;;;;;13.98;81.37;99290.47;5281145;28;20113;-79
2023/10/29 09:23:09;;;;;;;;;;;;;;;13.95;82.90;99295.84;5265876;28;20032;-78
2023/10/29 09:25:44;;;;;;;8.00;2.13;;;;;;;13.83;81.36;99292.94;5265675;28;19975;-81
2023/10/29 09:28:16;;;;;;;12.20;3.40;;;;;;;14.01;80.41;99288.53;5265443;28;20029;-79
2023/10/29 09:30:48;;;;;;;7.50;2.87;;;;;;;14.44;80.56;99297.72;5264562;28;20456;-74
2023/10/29 09:33:19;;;;;;;8.77;2.53;;;;;;;14.88;77.53;99297.16;5265126;28;20025;-77
2023/10/29 09:35:50;;;;;;;10.37;2.70;;;;;;;15.02;76.21;99293.75;5264834;28;20469;-74
2023/10/29 09:38:22;;;;;;;13.20;3.20;;;;;;;15.13;74.99;99280.91;5265570;28;20058;-75
2023/10/29 09:40:53;;;;;;;6.83;2.23;;;;;;;15.03;75.25;99283.19;5265452;28;20399;-75
2023/10/29 09:43:36;;;;;;;8.77;2.60;;;;;;;14.67;76.40;99300.00;5265047;28;20044;-75
2023/10/29 09:46:09;;;;;;;12.57;2.67;;;;;;;14.61;79.06;99294.25;5265783;28;20033;-75
2023/10/29 09:48:42;;;;;;;9.93;3.13;;;;;;;14.84;77.64;99278.09;5264735;28;20029;-74
2023/10/29 09:51:15;;;;;;;11.27;3.00;;;;;;;14.89;75.36;99286.59;5264544;28;20041;-75
2023/10/29 09:53:48;;;;;;;11.30;2.85;;;;;;;15.11;76.48;99286.22;5264419;28;20112;-75
2023/10/29 09:56:20;;;;;;;13.77;2.97;;;;;;;15.12;75.25;99290.56;5264182;28;20025;-75
2023/10/29 09:58:52;;;;;;;14.73;3.13;;;;;;;14.85;74.69;99292.09;5262863;28;20357;-76
2023/10/29 10:01:23;;;;;;;7.80;2.40;;;;;;;14.67;74.94;99272.94;5263451;28;20065;-74
2023/10/29 10:03:55;;;;;;;10.73;2.60;;;;;;;14.57;73.65;99273.41;5264068;28;20064;-73
2023/10/29 10:06:29;;;;;;;11.63;3.07;;;;;;;14.40;74.37;99270.81;5264969;28;20033;-75
2023/10/29 10:09:00;;;;;;;8.73;2.58;;;;;;;14.25;76.80;99269.84;5265463;28;20065;-76
2023/10/29 10:11:32;;;;;;;9.17;3.50;;;;;;;14.23;76.27;99262.06;5269323;28;20029;-74
2023/10/29 10:14:04;;;;;;;12.03;2.27;;;;;;;14.08;76.40;99262.84;5271881;28;20031;-75
2023/10/29 10:16:35;;;;;;;12.13;2.83;;;;;;;14.00;79.11;99272.88;5268349;28;20057;-74
2023/10/29 10:19:07;;;;;;;9.10;2.37;;;;;;;13.97;81.16;99259.94;5267614;28;20323;-75
2023/10/29 10:21:47;;;;;;;10.30;2.37;;;;;;;14.02;80.95;99261.41;5268398;28;20036;-74
2023/10/29 10:24:35;;;;;;;12.15;3.05;;;;;;;14.07;78.91;99257.69;5280045;28;20075;-75
2023/10/29 10:27:09;;;;;;;8.60;2.70;;;;;;;14.06;80.67;99246.38;5264166;28;20091;-74
2023/10/29 10:29:40;;;;;;;14.85;2.40;;;;;;;14.15;80.58;99247.66;5263939;28;20033;-75
2023/10/29 10:32:11;;;;;;;9.37;2.87;;;;;;;14.33;78.92;99251.94;5264133;28;20113;-75
2023/10/29 10:34:51;;;;;;;9.33;2.50;;;;;;;14.55;78.73;99256.91;5264355;28;20079;-75
2023/10/29 10:37:24;;;;;;;9.93;3.08;;;;;;;14.66;76.30;99258.97;5263411;28;20032;-76
2023/10/29 10:39:56;;;;;;;9.07;2.42;;;;;;;14.86;76.35;99263.13;5264060;28;20365;-76
2023/10/29 10:42:27;;;;;;;11.57;2.97;;;;;;;14.86;75.92;99297.25;5262456;28;20044;-75
2023/10/29 10:45:00;;;;;;;10.43;2.70;;;;;;;14.78;75.33;99294.19;5263829;28;20028;-76
2023/10/29 10:47:31;;;;;;;9.15;2.83;;;;;;;14.61;74.97;99299.50;5262818;28;20037;-76
2023/10/29 10:50:03;;;;;;;9.67;2.70;;;;;;;14.48;76.77;99307.97;5263331;28;20029;-75
2023/10/29 10:52:34;;;;;;;9.37;2.60;;;;;;;14.28;79.60;99308.16;5262533;28;20128;-76
2023/10/29 10:55:06;;;;;;;8.17;2.70;;;;;;;14.13;79.83;99300.16;5279032;28;20029;-76
2023/10/29 10:57:38;;;;;;;7.10;2.33;;;;;;;14.06;81.00;99290.91;5263443;28;20035;-76
2023/10/29 11:00:10;;;;;;;9.83;3.03;;;;;;;13.93;82.11;99295.09;5263006;28;20025;-76
2023/10/29 11:02:43;;;;;;;9.95;2.78;;;;;;;13.76;81.34;99291.53;5263736;28;20053;-77
2023/10/29 11:05:18;;;;;;;;;;;;;;;13.81;82.29;99289.56;5263437;28;20048;-75
2023/10/29 11:07:50;;;;;;;13.32;3.47;;;;;;;13.71;81.21;99290.09;5263176;28;19925;-74
2023/10/29 11:10:23;;;;;;;8.37;2.30;;;;;;;13.63;83.51;99286.06;5261928;28;20049;-76
2023/10/29 11:12:54;;;;;;;10.45;3.20;;;;;;;13.63;83.48;99285.22;5262705;28;20392;-74
2023/10/29 11:15:26;;;;;;;8.10;2.47;;;;;;;13.65;83.18;99278.13;5263542;28;20040;-74
2023/10/29 11:18:03;;;;;;;11.83;2.70;;;;;;;13.58;83.37;99269.72;5260969;28;20080;-75
2023/10/29 11:23:09;;;;;;;12.02;3.33;;;;;;;13.60;84.28;99259.19;5261914;28;20403;-75
2023/10/29 11:25:41;;;;;;;9.83;3.20;;;;;;;13.60;84.51;99249.53;5263249;28;20052;-74
2023/10/29 11:28:26;;;;;;;14.10;4.43;;;;;;;13.64;84.49;99248.47;5262790;28;20029;-76
2023/10/29 11:31:16;;;;;;;10.00;3.03;;;;;;;13.68;83.43;99231.72;5262447;28;20357;-74
2023/10/29 11:34:10;;;;;;;8.45;2.60;;;;;;;13.75;84.51;99227.00;5262875;28;20060;-75
2023/10/29 11:36:42;;;;;;;12.57;3.13;;;;;;;13.71;83.27;99222.00;5262892;28;20035;-75
2023/10/29 11:39:18;;;;;;;11.45;3.08;;;;;;;13.82;83.00;99220.50;5262742;28;20124;-75
2023/10/29 11:41:52;;;;;;;12.13;3.05;;;;;;;13.97;82.19;99211.00;5262978;28;20041;-76
2023/10/29 11:44:32;;;;;;;9.30;3.03;;;;;;;14.25;81.58;99212.19;5263370;28;20495;-74
2023/10/29 11:47:04;;;;;;;9.30;2.33;;;;;;;14.49;79.70;99189.06;5265187;28;20029;-75
2023/10/29 11:49:41;;;;;;;9.57;3.47;;;;;;;14.76;79.31;99183.25;5265912;28;20033;-74
2023/10/29 11:52:13;;;;;;;12.93;3.67;;;;;;;14.82;77.93;99182.91;5263329;28;20086;-75